createdAt,value
2019-02-02T00:00:12.563Z,972.81
2019-02-02T00:01:09.612Z,972.87
2019-02-02T00:02:06.604Z,972.76
2019-02-02T00:03:03.619Z,972.75
2019-02-02T00:04:00.658Z,972.73
2019-02-02T00:04:57.679Z,972.74
2019-02-02T00:05:54.714Z,972.72
2019-02-02T00:06:51.745Z,972.71
2019-02-02T00:07:48.778Z,972.77
2019-02-02T00:08:45.791Z,972.66
2019-02-02T00:09:42.838Z,972.73
2019-02-02T00:10:39.861Z,972.72
2019-02-02T00:11:36.876Z,972.78
2019-02-02T00:12:33.906Z,972.83
2019-02-02T00:13:30.923Z,972.89
2019-02-02T00:14:27.961Z,972.97
2019-02-02T00:15:24.992Z,972.91
2019-02-02T00:16:22.008Z,972.93
2019-02-02T00:17:19.047Z,972.93
2019-02-02T00:18:16.074Z,972.90
2019-02-02T00:19:13.112Z,972.93
2019-02-02T00:20:10.121Z,972.96
2019-02-02T00:21:07.142Z,972.99
2019-02-02T00:22:04.183Z,972.99
2019-02-02T00:23:01.218Z,972.97
2019-02-02T00:23:58.241Z,973.04
2019-02-02T00:24:55.279Z,973.09
2019-02-02T00:25:52.315Z,973.09
2019-02-02T00:26:49.367Z,973.11
2019-02-02T00:27:46.352Z,973.13
2019-02-02T00:28:43.403Z,973.15
2019-02-02T00:29:40.399Z,973.20
2019-02-02T00:30:37.438Z,973.10
2019-02-02T00:31:34.459Z,973.12
2019-02-02T00:32:31.491Z,973.08
2019-02-02T00:33:28.516Z,973.09
2019-02-02T00:34:25.611Z,973.11
2019-02-02T00:35:22.571Z,973.14
2019-02-02T00:36:19.615Z,973.18
2019-02-02T00:37:17.617Z,973.22
2019-02-02T00:38:13.655Z,973.17
2019-02-02T00:39:10.693Z,973.22
2019-02-02T00:40:07.720Z,973.21
2019-02-02T00:41:04.726Z,973.22
2019-02-02T00:42:01.273Z,973.19
2019-02-02T00:42:58.801Z,973.17
2019-02-02T00:43:55.822Z,973.16
2019-02-02T00:44:52.882Z,973.16
2019-02-02T00:45:49.876Z,973.14
2019-02-02T00:46:46.922Z,973.13
2019-02-02T00:47:43.942Z,973.19
2019-02-02T00:48:40.963Z,973.15
2019-02-02T00:49:37.994Z,973.14
2019-02-02T00:50:35.047Z,973.10
2019-02-02T00:51:32.048Z,973.05
2019-02-02T00:52:29.070Z,973.04
2019-02-02T00:53:26.097Z,972.99
2019-02-02T00:54:23.127Z,972.98
2019-02-02T00:55:20.155Z,972.98
2019-02-02T00:56:17.179Z,973.03
2019-02-02T00:57:14.211Z,972.93
2019-02-02T00:58:10.744Z,972.99
2019-02-02T00:59:08.280Z,973.09
2019-02-02T01:00:05.293Z,973.04
2019-02-02T01:01:02.316Z,973.05
2019-02-02T01:01:59.353Z,973.07
2019-02-02T01:02:56.379Z,973.08
2019-02-02T01:03:53.392Z,973.12
2019-02-02T01:04:50.445Z,973.15
2019-02-02T01:05:47.603Z,973.16
2019-02-02T01:06:44.499Z,973.20
2019-02-02T01:07:41.518Z,973.14
2019-02-02T01:08:38.542Z,973.20
2019-02-02T01:09:35.613Z,973.18
2019-02-02T01:10:32.584Z,973.11
2019-02-02T01:11:29.625Z,973.19
2019-02-02T01:12:26.657Z,973.20
2019-02-02T01:13:23.694Z,973.21
2019-02-02T01:14:20.698Z,973.17
2019-02-02T01:15:17.735Z,973.19
2019-02-02T01:16:14.763Z,973.17
2019-02-02T01:17:12.767Z,973.10
2019-02-02T01:18:08.833Z,973.20
2019-02-02T01:19:06.795Z,973.18
2019-02-02T01:20:03.210Z,973.15
2019-02-02T01:20:59.903Z,973.14
2019-02-02T01:21:56.927Z,973.14
2019-02-02T01:22:54.031Z,973.13
2019-02-02T01:23:50.972Z,973.23
2019-02-02T01:24:48.011Z,973.19
2019-02-02T01:25:45.048Z,973.19
2019-02-02T01:26:42.068Z,973.27
2019-02-02T01:27:39.098Z,973.24
2019-02-02T01:28:36.133Z,973.23
2019-02-02T01:29:33.156Z,973.23
2019-02-02T01:30:30.179Z,973.22
2019-02-02T01:31:27.205Z,973.21
2019-02-02T01:32:24.237Z,973.23
2019-02-02T01:33:21.276Z,973.21
2019-02-02T01:34:18.291Z,973.27
2019-02-02T01:35:15.317Z,973.28
2019-02-02T01:36:12.337Z,973.29
2019-02-02T01:37:10.364Z,973.34
2019-02-02T01:38:06.404Z,973.27
2019-02-02T01:39:03.453Z,973.34
2019-02-02T01:40:00.457Z,973.30
2019-02-02T01:40:57.472Z,973.36
2019-02-02T01:41:54.506Z,973.33
2019-02-02T01:42:51.629Z,973.29
2019-02-02T01:43:48.567Z,973.28
2019-02-02T01:44:45.620Z,973.42
2019-02-02T01:45:42.623Z,973.44
2019-02-02T01:46:39.665Z,973.45
2019-02-02T01:47:36.681Z,973.47
2019-02-02T01:48:33.713Z,973.40
2019-02-02T01:49:30.729Z,973.45
2019-02-02T01:50:27.750Z,973.43
2019-02-02T01:51:24.793Z,973.44
2019-02-02T01:52:21.821Z,973.34
2019-02-02T01:53:18.846Z,973.40
2019-02-02T01:54:15.878Z,973.37
2019-02-02T01:55:12.921Z,973.37
2019-02-02T01:56:09.929Z,973.39
2019-02-02T01:57:07.952Z,973.45
2019-02-02T01:58:03.982Z,973.39
2019-02-02T01:59:01.021Z,973.47
2019-02-02T01:59:58.032Z,973.47
2019-02-02T02:00:55.059Z,973.42
2019-02-02T02:01:52.088Z,973.41
2019-02-02T02:02:49.129Z,973.51
2019-02-02T02:03:46.151Z,973.41
2019-02-02T02:04:43.179Z,973.52
2019-02-02T02:05:40.211Z,973.60
2019-02-02T02:06:37.225Z,973.51
2019-02-02T02:07:34.262Z,973.52
2019-02-02T02:08:31.292Z,973.51
2019-02-02T02:09:28.318Z,973.43
2019-02-02T02:10:25.346Z,973.42
2019-02-02T02:11:22.397Z,973.37
2019-02-02T02:12:19.391Z,973.36
2019-02-02T02:13:16.492Z,973.36
2019-02-02T02:14:13.617Z,973.34
2019-02-02T02:15:10.511Z,973.27
2019-02-02T02:16:07.596Z,973.29
2019-02-02T02:17:04.543Z,973.26
2019-02-02T02:18:01.557Z,973.20
2019-02-02T02:18:58.602Z,973.21
2019-02-02T02:19:55.622Z,973.16
2019-02-02T02:20:52.657Z,973.20
2019-02-02T02:21:49.666Z,973.25
2019-02-02T02:22:46.699Z,973.20
2019-02-02T02:23:43.736Z,973.30
2019-02-02T02:24:40.768Z,973.40
2019-02-02T02:25:37.775Z,973.39
2019-02-02T02:26:34.818Z,973.44
2019-02-02T02:27:31.853Z,973.37
2019-02-02T02:28:28.883Z,973.45
2019-02-02T02:29:25.895Z,973.52
2019-02-02T02:30:22.914Z,973.58
2019-02-02T02:31:19.948Z,973.55
2019-02-02T02:32:16.987Z,973.52
2019-02-02T02:33:14.019Z,973.59
2019-02-02T02:34:11.038Z,973.59
2019-02-02T02:35:08.066Z,973.61
2019-02-02T02:36:05.094Z,973.53
2019-02-02T02:37:03.108Z,973.54
2019-02-02T02:37:59.148Z,973.59
2019-02-02T02:38:55.682Z,973.53
2019-02-02T02:39:53.201Z,973.54
2019-02-02T02:40:50.227Z,973.49
2019-02-02T02:41:47.254Z,973.56
2019-02-02T02:42:44.284Z,973.50
2019-02-02T02:43:41.309Z,973.56
2019-02-02T02:44:38.357Z,973.54
2019-02-02T02:45:35.368Z,973.50
2019-02-02T02:46:33.393Z,973.46
2019-02-02T02:47:29.422Z,973.47
2019-02-02T02:48:26.457Z,973.44
2019-02-02T02:49:23.601Z,973.48
2019-02-02T02:50:20.505Z,973.47
2019-02-02T02:51:17.616Z,973.37
2019-02-02T02:52:14.549Z,973.42
2019-02-02T02:53:11.604Z,973.41
2019-02-02T02:54:08.632Z,973.41
2019-02-02T02:55:05.657Z,973.40
2019-02-02T02:56:02.676Z,973.43
2019-02-02T02:56:59.702Z,973.38
2019-02-02T02:57:56.733Z,973.37
2019-02-02T02:58:53.752Z,973.41
2019-02-02T02:59:50.771Z,973.36
2019-02-02T03:00:47.807Z,973.38
2019-02-02T03:01:44.824Z,973.26
2019-02-02T03:02:41.853Z,973.25
2019-02-02T03:03:38.891Z,973.23
2019-02-02T03:04:35.930Z,973.21
2019-02-02T03:05:32.944Z,973.26
2019-02-02T03:06:29.973Z,973.17
2019-02-02T03:07:27.018Z,973.26
2019-02-02T03:08:24.041Z,973.20
2019-02-02T03:09:21.049Z,973.22
2019-02-02T03:10:18.076Z,973.19
2019-02-02T03:11:15.114Z,973.13
2019-02-02T03:12:12.123Z,973.04
2019-02-02T03:13:09.154Z,973.01
2019-02-02T03:14:06.207Z,972.98
2019-02-02T03:15:03.223Z,972.88
2019-02-02T03:16:01.241Z,972.93
2019-02-02T03:16:57.276Z,972.89
2019-02-02T03:17:54.320Z,972.84
2019-02-02T03:18:51.359Z,972.84
2019-02-02T03:19:48.534Z,972.80
2019-02-02T03:20:45.392Z,972.75
2019-02-02T03:21:43.822Z,972.79
2019-02-02T03:22:38.946Z,972.89
2019-02-02T03:23:36.483Z,972.92
2019-02-02T03:24:33.610Z,972.96
2019-02-02T03:25:30.525Z,973.01
2019-02-02T03:26:27.554Z,973.05
2019-02-02T03:27:24.588Z,973.22
2019-02-02T03:28:21.626Z,973.17
2019-02-02T03:29:18.679Z,973.23
2019-02-02T03:30:15.665Z,973.24
2019-02-02T03:31:12.682Z,973.19
2019-02-02T03:32:09.710Z,973.24
2019-02-02T03:33:06.756Z,973.17
2019-02-02T03:34:03.773Z,973.19
2019-02-02T03:35:00.811Z,973.18
2019-02-02T03:35:57.828Z,973.24
2019-02-02T03:36:54.863Z,973.20
2019-02-02T03:37:51.878Z,973.28
2019-02-02T03:38:48.915Z,973.23
2019-02-02T03:39:45.601Z,973.23
2019-02-02T03:40:42.966Z,973.28
2019-02-02T03:41:39.985Z,973.30
2019-02-02T03:42:37.015Z,973.27
2019-02-02T03:43:34.060Z,973.24
2019-02-02T03:44:31.077Z,973.33
2019-02-02T03:45:28.096Z,973.24
2019-02-02T03:46:25.133Z,973.27
2019-02-02T03:47:22.168Z,973.26
2019-02-02T03:48:19.179Z,973.31
2019-02-02T03:49:16.203Z,973.26
2019-02-02T03:50:13.245Z,973.32
2019-02-02T03:51:10.280Z,973.29
2019-02-02T03:52:07.299Z,973.41
2019-02-02T03:53:04.340Z,973.38
2019-02-02T03:54:09.009Z,973.42
2019-02-02T03:54:58.393Z,973.42
2019-02-02T03:55:56.410Z,973.38
2019-02-02T03:56:52.450Z,973.39
2019-02-02T03:57:49.598Z,973.36
2019-02-02T03:58:46.483Z,973.32
2019-02-02T03:59:43.600Z,973.38
2019-02-02T04:00:40.536Z,973.25
2019-02-02T04:01:37.596Z,973.32
2019-02-02T04:02:34.595Z,973.27
2019-02-02T04:03:31.647Z,973.27
2019-02-02T04:04:28.662Z,973.25
2019-02-02T04:05:25.708Z,973.19
2019-02-02T04:06:22.717Z,973.24
2019-02-02T04:07:19.773Z,973.19
2019-02-02T04:08:16.772Z,973.16
2019-02-02T04:09:13.810Z,973.22
2019-02-02T04:10:10.822Z,973.07
2019-02-02T04:11:07.858Z,973.10
2019-02-02T04:12:04.871Z,973.09
2019-02-02T04:13:01.909Z,973.13
2019-02-02T04:13:58.939Z,973.14
2019-02-02T04:14:55.974Z,973.18
2019-02-02T04:15:53.045Z,973.16
2019-02-02T04:16:50.040Z,973.12
2019-02-02T04:17:47.042Z,973.14
2019-02-02T04:18:44.080Z,973.20
2019-02-02T04:19:41.108Z,973.21
2019-02-02T04:20:38.128Z,973.22
2019-02-02T04:21:35.168Z,973.06
2019-02-02T04:22:32.180Z,973.09
2019-02-02T04:23:29.226Z,973.08
2019-02-02T04:24:26.248Z,973.01
2019-02-02T04:25:23.266Z,973.01
2019-02-02T04:26:20.300Z,973.04
2019-02-02T04:27:17.336Z,973.13
2019-02-02T04:28:14.347Z,973.21
2019-02-02T04:29:17.737Z,973.26
2019-02-02T04:30:08.411Z,973.26
2019-02-02T04:31:05.429Z,973.31
2019-02-02T04:32:02.469Z,973.39
2019-02-02T04:32:59.591Z,973.43
2019-02-02T04:33:56.523Z,973.51
2019-02-02T04:34:53.547Z,973.50
2019-02-02T04:35:50.582Z,973.53
2019-02-02T04:36:47.611Z,973.46
2019-02-02T04:37:44.643Z,973.63
2019-02-02T04:38:41.665Z,973.75
2019-02-02T04:39:38.689Z,973.79
2019-02-02T04:40:35.719Z,973.69
2019-02-02T04:41:32.734Z,973.65
2019-02-02T04:42:29.773Z,973.61
2019-02-02T04:43:26.810Z,973.62
2019-02-02T04:44:23.827Z,973.70
2019-02-02T04:45:20.871Z,973.75
2019-02-02T04:46:17.878Z,973.77
2019-02-02T04:47:14.926Z,973.84
2019-02-02T04:48:12.980Z,973.83
2019-02-02T04:49:08.966Z,973.79
2019-02-02T04:50:05.984Z,973.83
2019-02-02T04:51:03.022Z,973.87
2019-02-02T04:52:00.051Z,973.81
2019-02-02T04:52:57.078Z,973.88
2019-02-02T04:53:54.107Z,973.93
2019-02-02T04:54:51.132Z,973.94
2019-02-02T04:55:48.184Z,973.94
2019-02-02T04:56:45.189Z,973.89
2019-02-02T04:57:42.208Z,973.87
2019-02-02T04:58:39.245Z,973.95
2019-02-02T04:59:36.273Z,973.92
2019-02-02T05:00:33.305Z,973.97
2019-02-02T05:01:30.320Z,973.90
2019-02-02T05:02:30.267Z,973.91
2019-02-02T05:03:24.390Z,973.89
2019-02-02T05:04:21.410Z,973.87
2019-02-02T05:05:18.447Z,973.94
2019-02-02T05:06:15.617Z,973.91
2019-02-02T05:07:12.502Z,973.89
2019-02-02T05:08:09.595Z,973.93
2019-02-02T05:09:06.531Z,973.92
2019-02-02T05:10:03.571Z,973.90
2019-02-02T05:11:00.608Z,973.92
2019-02-02T05:11:57.620Z,973.87
2019-02-02T05:12:54.649Z,973.93
2019-02-02T05:13:51.707Z,973.92
2019-02-02T05:14:48.715Z,973.83
2019-02-02T05:15:45.743Z,973.93
2019-02-02T05:16:42.778Z,973.99
2019-02-02T05:17:39.812Z,973.94
2019-02-02T05:18:36.849Z,973.94
2019-02-02T05:19:33.841Z,973.99
2019-02-02T05:20:30.880Z,973.90
2019-02-02T05:21:27.911Z,974.00
2019-02-02T05:22:24.927Z,974.01
2019-02-02T05:23:21.988Z,973.97
2019-02-02T05:24:18.994Z,974.03
2019-02-02T05:25:16.023Z,974.06
2019-02-02T05:26:13.056Z,974.08
2019-02-02T05:27:10.081Z,974.06
2019-02-02T05:28:06.611Z,974.01
2019-02-02T05:29:04.118Z,974.03
2019-02-02T05:30:01.152Z,974.12
2019-02-02T05:30:58.189Z,974.11
2019-02-02T05:31:55.214Z,974.18
2019-02-02T05:32:52.255Z,974.04
2019-02-02T05:33:49.272Z,974.14
2019-02-02T05:34:46.298Z,974.15
2019-02-02T05:35:43.325Z,974.17
2019-02-02T05:36:39.860Z,974.26
2019-02-02T05:37:37.374Z,974.23
2019-02-02T05:38:34.502Z,974.28
2019-02-02T05:39:31.440Z,974.27
2019-02-02T05:40:28.461Z,974.27
2019-02-02T05:41:25.632Z,974.32
2019-02-02T05:42:22.520Z,974.18
2019-02-02T05:43:19.619Z,974.30
2019-02-02T05:44:16.574Z,974.22
2019-02-02T05:45:13.601Z,974.34
2019-02-02T05:46:10.641Z,974.35
2019-02-02T05:47:07.673Z,974.25
2019-02-02T05:48:04.676Z,974.28
2019-02-02T05:49:01.715Z,974.14
2019-02-02T05:49:58.738Z,974.15
2019-02-02T05:50:55.755Z,974.17
2019-02-02T05:51:52.811Z,974.07
2019-02-02T05:52:49.825Z,974.16
2019-02-02T05:53:46.852Z,974.14
2019-02-02T05:54:43.878Z,974.18
2019-02-02T05:55:40.904Z,974.09
2019-02-02T05:56:37.936Z,974.18
2019-02-02T05:57:34.959Z,974.13
2019-02-02T05:58:31.976Z,974.16
2019-02-02T05:59:29.013Z,974.13
2019-02-02T06:00:26.052Z,974.12
2019-02-02T06:01:23.072Z,974.08
2019-02-02T06:02:20.100Z,974.12
2019-02-02T06:03:17.134Z,974.12
2019-02-02T06:04:14.159Z,974.12
2019-02-02T06:05:11.181Z,974.12
2019-02-02T06:06:08.211Z,974.09
2019-02-02T06:07:05.237Z,974.17
2019-02-02T06:08:02.258Z,974.14
2019-02-02T06:08:59.285Z,974.14
2019-02-02T06:09:56.322Z,974.21
2019-02-02T06:10:53.355Z,974.23
2019-02-02T06:11:50.381Z,974.25
2019-02-02T06:12:47.431Z,974.29
2019-02-02T06:13:44.434Z,974.25
2019-02-02T06:14:41.916Z,974.36
2019-02-02T06:15:39.494Z,974.44
2019-02-02T06:16:35.589Z,974.35
2019-02-02T06:17:32.548Z,974.43
2019-02-02T06:18:29.595Z,974.49
2019-02-02T06:19:26.596Z,974.42
2019-02-02T06:20:23.633Z,974.47
2019-02-02T06:21:20.643Z,974.54
2019-02-02T06:22:17.672Z,974.54
2019-02-02T06:23:14.708Z,974.52
2019-02-02T06:24:11.739Z,974.60
2019-02-02T06:25:09.761Z,974.54
2019-02-02T06:26:05.800Z,974.60
2019-02-02T06:27:02.850Z,974.62
2019-02-02T06:27:59.853Z,974.66
2019-02-02T06:28:56.867Z,974.72
2019-02-02T06:30:03.744Z,974.71
2019-02-02T06:30:50.928Z,974.67
2019-02-02T06:31:47.945Z,974.75
2019-02-02T06:32:44.500Z,974.66
2019-02-02T06:33:42.013Z,974.65
2019-02-02T06:34:39.029Z,974.62
2019-02-02T06:35:36.068Z,974.59
2019-02-02T06:36:33.102Z,974.58
2019-02-02T06:37:30.127Z,974.56
2019-02-02T06:38:27.148Z,974.55
2019-02-02T06:39:24.172Z,974.49
2019-02-02T06:40:21.210Z,974.49
2019-02-02T06:41:18.220Z,974.48
2019-02-02T06:42:15.274Z,974.38
2019-02-02T06:43:12.287Z,974.36
2019-02-02T06:44:09.312Z,974.28
2019-02-02T06:45:06.340Z,974.25
2019-02-02T06:46:03.377Z,974.32
2019-02-02T06:47:00.401Z,974.34
2019-02-02T06:47:57.433Z,974.32
2019-02-02T06:48:54.442Z,974.33
2019-02-02T06:49:51.611Z,974.37
2019-02-02T06:50:48.519Z,974.37
2019-02-02T06:51:45.534Z,974.46
2019-02-02T06:52:42.570Z,974.40
2019-02-02T06:53:39.599Z,974.41
2019-02-02T06:54:36.618Z,974.52
2019-02-02T06:55:33.649Z,974.55
2019-02-02T06:56:30.669Z,974.61
2019-02-02T06:57:27.214Z,974.64
2019-02-02T06:58:24.730Z,974.62
2019-02-02T06:59:21.758Z,974.61
2019-02-02T07:00:18.777Z,974.65
2019-02-02T07:01:15.812Z,974.62
2019-02-02T07:02:12.859Z,974.60
2019-02-02T07:03:09.887Z,974.65
2019-02-02T07:04:06.887Z,974.66
2019-02-02T07:05:03.924Z,974.61
2019-02-02T07:06:00.961Z,974.67
2019-02-02T07:06:57.997Z,974.67
2019-02-02T07:07:54.995Z,974.67
2019-02-02T07:08:52.037Z,974.72
2019-02-02T07:09:49.064Z,974.82
2019-02-02T07:10:46.088Z,974.76
2019-02-02T07:11:43.115Z,974.78
2019-02-02T07:12:40.154Z,974.83
2019-02-02T07:13:37.167Z,974.84
2019-02-02T07:14:35.199Z,974.89
2019-02-02T07:15:31.346Z,974.99
2019-02-02T07:16:28.243Z,975.00
2019-02-02T07:17:25.286Z,975.10
2019-02-02T07:18:22.318Z,975.20
2019-02-02T07:19:19.339Z,975.27
2019-02-02T07:20:16.365Z,975.28
2019-02-02T07:21:13.382Z,975.28
2019-02-02T07:22:10.439Z,975.28
2019-02-02T07:23:07.631Z,975.41
2019-02-02T07:24:04.594Z,975.37
2019-02-02T07:25:01.635Z,975.39
2019-02-02T07:25:58.683Z,975.46
2019-02-02T07:26:55.626Z,975.44
2019-02-02T07:27:52.589Z,975.46
2019-02-02T07:28:49.620Z,975.50
2019-02-02T07:29:46.632Z,975.55
2019-02-02T07:30:43.671Z,975.52
2019-02-02T07:31:40.696Z,975.48
2019-02-02T07:32:37.734Z,975.54
2019-02-02T07:33:34.769Z,975.54
2019-02-02T07:34:31.779Z,975.49
2019-02-02T07:35:28.809Z,975.52
2019-02-02T07:36:25.833Z,975.55
2019-02-02T07:37:22.870Z,975.59
2019-02-02T07:38:20.036Z,975.55
2019-02-02T07:39:16.917Z,975.67
2019-02-02T07:40:13.935Z,975.62
2019-02-02T07:41:10.976Z,975.59
2019-02-02T07:42:08.048Z,975.64
2019-02-02T07:43:05.098Z,975.71
2019-02-02T07:44:02.066Z,975.69
2019-02-02T07:44:59.087Z,975.70
2019-02-02T07:45:56.121Z,975.68
2019-02-02T07:46:53.134Z,975.64
2019-02-02T07:47:50.188Z,975.67
2019-02-02T07:48:47.192Z,975.63
2019-02-02T07:49:44.227Z,975.62
2019-02-02T07:50:41.308Z,975.68
2019-02-02T07:51:38.287Z,975.72
2019-02-02T07:52:35.317Z,975.61
2019-02-02T07:53:32.346Z,975.67
2019-02-02T07:54:29.360Z,975.66
2019-02-02T07:55:26.512Z,975.70
2019-02-02T07:56:23.403Z,975.76
2019-02-02T07:57:20.699Z,975.88
2019-02-02T07:58:17.616Z,975.86
2019-02-02T07:59:14.502Z,975.91
2019-02-02T08:00:12.523Z,975.89
2019-02-02T08:01:08.550Z,975.88
2019-02-02T08:02:05.593Z,975.81
2019-02-02T08:03:02.613Z,975.76
2019-02-02T08:03:59.149Z,975.78
2019-02-02T08:04:56.677Z,975.80
2019-02-02T08:05:53.688Z,975.80
2019-02-02T08:06:50.728Z,975.75
2019-02-02T08:07:47.736Z,975.82
2019-02-02T08:08:44.776Z,975.82
2019-02-02T08:09:41.793Z,975.89
2019-02-02T08:10:38.825Z,975.91
2019-02-02T08:11:35.857Z,975.86
2019-02-02T08:12:32.889Z,975.94
2019-02-02T08:13:29.423Z,975.91
2019-02-02T08:14:26.950Z,975.91
2019-02-02T08:15:23.976Z,975.95
2019-02-02T08:16:20.987Z,975.88
2019-02-02T08:17:18.031Z,975.98
2019-02-02T08:18:15.044Z,975.97
2019-02-02T08:19:12.074Z,975.92
2019-02-02T08:20:09.097Z,975.86
2019-02-02T08:21:06.135Z,975.88
2019-02-02T08:22:03.162Z,975.97
2019-02-02T08:23:00.189Z,975.91
2019-02-02T08:23:57.225Z,976.06
2019-02-02T08:24:54.242Z,976.05
2019-02-02T08:25:51.274Z,976.11
2019-02-02T08:26:48.293Z,976.08
2019-02-02T08:27:45.327Z,976.15
2019-02-02T08:28:42.459Z,976.08
2019-02-02T08:29:39.377Z,976.13
2019-02-02T08:30:36.450Z,976.07
2019-02-02T08:31:33.595Z,975.97
2019-02-02T08:32:30.464Z,976.05
2019-02-02T08:33:28.484Z,976.09
2019-02-02T08:34:24.527Z,976.12
2019-02-02T08:35:21.599Z,976.13
2019-02-02T08:36:18.565Z,976.16
2019-02-02T08:37:15.642Z,976.22
2019-02-02T08:38:12.629Z,976.31
2019-02-02T08:39:09.903Z,976.28
2019-02-02T08:40:06.675Z,976.23
2019-02-02T08:41:03.715Z,976.22
2019-02-02T08:42:00.740Z,976.15
2019-02-02T08:42:58.763Z,976.20
2019-02-02T08:43:54.804Z,976.20
2019-02-02T08:44:51.824Z,976.29
2019-02-02T08:45:48.836Z,976.24
2019-02-02T08:46:45.870Z,976.22
2019-02-02T08:47:42.905Z,976.16
2019-02-02T08:48:39.925Z,976.20
2019-02-02T08:49:36.957Z,976.26
2019-02-02T08:50:34.005Z,976.32
2019-02-02T08:51:31.004Z,976.45
2019-02-02T08:52:28.030Z,976.46
2019-02-02T08:53:26.074Z,976.39
2019-02-02T08:54:21.599Z,976.41
2019-02-02T08:55:19.120Z,976.32
2019-02-02T08:56:16.153Z,976.30
2019-02-02T08:57:13.175Z,976.37
2019-02-02T08:58:10.372Z,976.34
2019-02-02T08:59:07.225Z,976.41
2019-02-02T09:00:04.258Z,976.45
2019-02-02T09:01:04.096Z,976.50
2019-02-02T09:01:58.315Z,976.41
2019-02-02T09:02:55.351Z,976.50
2019-02-02T09:03:52.422Z,976.41
2019-02-02T09:04:49.471Z,976.42
2019-02-02T09:05:46.447Z,976.38
2019-02-02T09:06:43.605Z,976.45
2019-02-02T09:07:40.485Z,976.51
2019-02-02T09:08:37.598Z,976.54
2019-02-02T09:09:34.529Z,976.49
2019-02-02T09:10:31.626Z,976.48
2019-02-02T09:11:28.593Z,976.51
2019-02-02T09:12:25.620Z,976.58
2019-02-02T09:13:22.679Z,976.50
2019-02-02T09:14:19.669Z,976.61
2019-02-02T09:15:16.698Z,976.57
2019-02-02T09:16:14.193Z,976.60
2019-02-02T09:17:10.756Z,976.63
2019-02-02T09:18:07.775Z,976.70
2019-02-02T09:19:04.844Z,976.75
2019-02-02T09:20:01.857Z,976.67
2019-02-02T09:20:58.870Z,976.63
2019-02-02T09:21:55.898Z,976.54
2019-02-02T09:23:03.906Z,976.57
2019-02-02T09:23:49.987Z,976.52
2019-02-02T09:24:46.979Z,976.54
2019-02-02T09:25:44.006Z,976.57
2019-02-02T09:26:41.028Z,976.59
2019-02-02T09:27:38.054Z,976.75
2019-02-02T09:28:35.092Z,976.73
2019-02-02T09:29:32.143Z,976.65
2019-02-02T09:30:29.160Z,976.75
2019-02-02T09:31:26.179Z,976.71
2019-02-02T09:32:23.216Z,976.61
2019-02-02T09:33:20.241Z,976.63
2019-02-02T09:34:17.266Z,976.76
2019-02-02T09:35:14.293Z,976.67
2019-02-02T09:36:11.304Z,976.73
2019-02-02T09:37:08.339Z,976.67
2019-02-02T09:38:05.381Z,976.75
2019-02-02T09:39:02.386Z,976.77
2019-02-02T09:39:59.435Z,976.81
2019-02-02T09:40:56.457Z,976.83
2019-02-02T09:41:53.599Z,976.82
2019-02-02T09:42:50.503Z,976.82
2019-02-02T09:43:47.544Z,976.86
2019-02-02T09:44:44.579Z,976.89
2019-02-02T09:45:41.599Z,976.88
2019-02-02T09:46:38.611Z,976.99
2019-02-02T09:47:35.648Z,977.00
2019-02-02T09:48:32.669Z,976.96
2019-02-02T09:49:29.733Z,977.03
2019-02-02T09:50:26.734Z,976.92
2019-02-02T09:51:23.741Z,977.05
2019-02-02T09:52:20.785Z,977.05
2019-02-02T09:53:17.803Z,977.07
2019-02-02T09:54:26.069Z,977.04
2019-02-02T09:55:11.862Z,977.17
2019-02-02T09:56:08.893Z,977.14
2019-02-02T09:57:05.921Z,977.20
2019-02-02T09:58:02.933Z,977.15
2019-02-02T09:58:59.970Z,977.16
2019-02-02T09:59:57.006Z,977.16
2019-02-02T10:00:54.034Z,977.22
2019-02-02T10:01:51.068Z,977.30
2019-02-02T10:02:48.090Z,977.27
2019-02-02T10:03:45.099Z,977.24
2019-02-02T10:04:42.135Z,977.35
2019-02-02T10:05:39.223Z,977.29
2019-02-02T10:06:36.202Z,977.37
2019-02-02T10:07:33.218Z,977.41
2019-02-02T10:08:30.237Z,977.45
2019-02-02T10:09:27.296Z,977.46
2019-02-02T10:10:24.305Z,977.49
2019-02-02T10:11:21.369Z,977.48
2019-02-02T10:12:20.993Z,977.54
2019-02-02T10:13:15.396Z,977.47
2019-02-02T10:14:12.422Z,977.49
2019-02-02T10:15:08.957Z,977.52
2019-02-02T10:16:06.503Z,977.53
2019-02-02T10:17:03.606Z,977.59
2019-02-02T10:18:00.515Z,977.59
2019-02-02T10:18:57.596Z,977.58
2019-02-02T10:19:54.580Z,977.60
2019-02-02T10:21:03.362Z,977.60
2019-02-02T10:21:49.916Z,977.60
2019-02-02T10:22:45.692Z,977.64
2019-02-02T10:23:42.689Z,977.60
2019-02-02T10:24:39.744Z,977.58
2019-02-02T10:25:36.738Z,977.62
2019-02-02T10:26:33.788Z,977.70
2019-02-02T10:27:30.804Z,977.76
2019-02-02T10:28:27.835Z,977.77
2019-02-02T10:29:24.853Z,977.80
2019-02-02T10:30:22.851Z,977.74
2019-02-02T10:31:18.921Z,977.83
2019-02-02T10:32:15.973Z,977.84
2019-02-02T10:33:12.969Z,977.76
2019-02-02T10:34:12.331Z,977.78
2019-02-02T10:36:04.051Z,977.75
2019-02-02T10:37:01.076Z,977.71
2019-02-02T10:37:58.114Z,977.71
2019-02-02T10:38:55.126Z,977.72
2019-02-02T10:39:52.154Z,977.72
2019-02-02T10:40:49.189Z,977.73
2019-02-02T10:41:46.227Z,977.71
2019-02-02T10:42:43.244Z,977.81
2019-02-02T10:43:40.257Z,977.76
2019-02-02T10:44:37.293Z,977.75
2019-02-02T10:45:34.451Z,977.74
2019-02-02T10:46:31.448Z,977.76
2019-02-02T10:47:28.376Z,977.74
2019-02-02T10:48:25.402Z,977.74
2019-02-02T10:49:22.429Z,977.71
2019-02-02T10:50:19.457Z,977.77
2019-02-02T10:51:16.533Z,977.71
2019-02-02T10:52:13.628Z,977.76
2019-02-02T10:53:10.545Z,977.73
2019-02-02T10:54:07.602Z,977.63
2019-02-02T10:55:04.599Z,977.69
2019-02-02T10:56:01.642Z,977.64
2019-02-02T10:56:58.668Z,977.67
2019-02-02T10:57:55.676Z,977.73
2019-02-02T10:58:52.704Z,977.66
2019-02-02T10:59:49.733Z,977.73
2019-02-02T11:00:46.759Z,977.78
2019-02-02T11:01:50.842Z,977.79
2019-02-02T11:02:40.814Z,977.82
2019-02-02T11:03:37.844Z,977.78
2019-02-02T11:04:34.939Z,977.77
2019-02-02T11:05:31.901Z,977.79
2019-02-02T11:06:28.947Z,977.81
2019-02-02T11:07:26.026Z,977.78
2019-02-02T11:08:23.117Z,977.80
2019-02-02T11:09:21.063Z,977.80
2019-02-02T11:10:18.294Z,977.82
2019-02-02T11:11:14.190Z,977.84
2019-02-02T11:12:11.091Z,977.84
2019-02-02T11:13:08.230Z,977.82
2019-02-02T11:14:05.165Z,977.86
2019-02-02T11:15:02.166Z,977.86
2019-02-02T11:15:59.217Z,977.84
2019-02-02T11:16:56.232Z,977.87
2019-02-02T11:17:53.279Z,977.98
2019-02-02T11:18:51.337Z,977.84
2019-02-02T11:19:47.522Z,977.87
2019-02-02T11:20:44.339Z,977.92
2019-02-02T11:21:41.558Z,977.83
2019-02-02T11:22:38.461Z,977.79
2019-02-02T11:23:35.429Z,977.82
2019-02-02T11:24:32.535Z,977.84
2019-02-02T11:25:29.629Z,977.83
2019-02-02T11:26:26.598Z,977.84
2019-02-02T11:27:23.775Z,977.85
2019-02-02T11:28:21.658Z,977.77
2019-02-02T11:29:17.596Z,977.79
2019-02-02T11:30:14.609Z,977.88
2019-02-02T11:31:11.625Z,977.94
2019-02-02T11:32:08.668Z,977.92
2019-02-02T11:33:05.683Z,977.87
2019-02-02T11:34:02.719Z,977.96
2019-02-02T11:34:59.739Z,977.94
2019-02-02T11:35:56.778Z,977.96
2019-02-02T11:36:53.798Z,977.99
2019-02-02T11:37:51.825Z,977.92
2019-02-02T11:38:47.844Z,977.93
2019-02-02T11:39:44.869Z,977.97
2019-02-02T11:40:41.935Z,978.01
2019-02-02T11:41:38.935Z,977.94
2019-02-02T11:42:35.959Z,977.99
2019-02-02T11:43:32.984Z,977.94
2019-02-02T11:44:30.010Z,978.00
2019-02-02T11:45:27.047Z,978.03
2019-02-02T11:46:24.069Z,978.04
2019-02-02T11:47:21.096Z,977.99
2019-02-02T11:48:18.120Z,977.96
2019-02-02T11:49:15.138Z,978.02
2019-02-02T11:50:12.177Z,978.06
2019-02-02T11:51:09.202Z,978.01
2019-02-02T11:52:06.226Z,978.08